sensor_id;sensor_type;location;lat;lon;timestamp;P1;durP1;ratioP1;P2;durP2;ratioP2
5616;SDS011;2830;50.656;7.568;2023-11-21T00:01:25;8.87;;;5.10;;
5616;SDS011;2830;50.656;7.568;2023-11-21T00:03:51;5.50;;;4.50;;
5616;SDS011;2830;50.656;7.568;2023-11-21T00:06:21;8.60;;;5.57;;
5616;SDS011;2830;50.656;7.568;2023-11-21T00:08:48;9.90;;;4.57;;
5616;SDS011;2830;50.656;7.568;2023-11-21T00:11:14;5.50;;;4.10;;
5616;SDS011;2830;50.656;7.568;2023-11-21T00:13:41;8.43;;;5.23;;
5616;SDS011;2830;50.656;7.568;2023-11-21T00:16:08;5.93;;;4.20;;
5616;SDS011;2830;50.656;7.568;2023-11-21T00:18:35;8.77;;;4.60;;
5616;SDS011;2830;50.656;7.568;2023-11-21T00:21:02;9.90;;;5.70;;
5616;SDS011;2830;50.656;7.568;2023-11-21T00:23:29;5.37;;;4.20;;
5616;SDS011;2830;50.656;7.568;2023-11-21T00:25:56;7.80;;;4.80;;
5616;SDS011;2830;50.656;7.568;2023-11-21T00:28:23;12.97;;;5.00;;
5616;SDS011;2830;50.656;7.568;2023-11-21T00:30:51;7.00;;;3.97;;
5616;SDS011;2830;50.656;7.568;2023-11-21T00:33:17;8.30;;;4.77;;
5616;SDS011;2830;50.656;7.568;2023-11-21T00:35:44;7.73;;;5.47;;
5616;SDS011;2830;50.656;7.568;2023-11-21T00:38:11;10.53;;;5.90;;
5616;SDS011;2830;50.656;7.568;2023-11-21T00:40:38;7.77;;;4.63;;
5616;SDS011;2830;50.656;7.568;2023-11-21T00:43:04;6.87;;;5.40;;
5616;SDS011;2830;50.656;7.568;2023-11-21T00:45:31;10.07;;;5.00;;
5616;SDS011;2830;50.656;7.568;2023-11-21T00:47:58;9.37;;;5.50;;
5616;SDS011;2830;50.656;7.568;2023-11-21T00:50:25;12.20;;;5.77;;
5616;SDS011;2830;50.656;7.568;2023-11-21T00:52:52;11.10;;;5.80;;
5616;SDS011;2830;50.656;7.568;2023-11-21T00:55:19;7.87;;;5.10;;
5616;SDS011;2830;50.656;7.568;2023-11-21T00:57:46;9.07;;;6.03;;
5616;SDS011;2830;50.656;7.568;2023-11-21T01:00:13;9.30;;;6.23;;
5616;SDS011;2830;50.656;7.568;2023-11-21T01:02:43;10.27;;;8.00;;
5616;SDS011;2830;50.656;7.568;2023-11-21T01:05:11;10.57;;;6.70;;
5616;SDS011;2830;50.656;7.568;2023-11-21T01:07:37;10.40;;;6.40;;
5616;SDS011;2830;50.656;7.568;2023-11-21T01:10:04;14.00;;;5.87;;
5616;SDS011;2830;50.656;7.568;2023-11-21T01:12:34;8.27;;;5.23;;
5616;SDS011;2830;50.656;7.568;2023-11-21T01:15:03;9.13;;;5.70;;
5616;SDS011;2830;50.656;7.568;2023-11-21T01:17:33;7.20;;;4.93;;
5616;SDS011;2830;50.656;7.568;2023-11-21T01:20:02;10.80;;;6.30;;
5616;SDS011;2830;50.656;7.568;2023-11-21T01:22:32;9.60;;;6.23;;
5616;SDS011;2830;50.656;7.568;2023-11-21T01:24:59;9.40;;;6.33;;
5616;SDS011;2830;50.656;7.568;2023-11-21T01:27:25;10.13;;;5.30;;
5616;SDS011;2830;50.656;7.568;2023-11-21T01:29:52;6.33;;;5.00;;
5616;SDS011;2830;50.656;7.568;2023-11-21T01:32:20;6.73;;;5.23;;
5616;SDS011;2830;50.656;7.568;2023-11-21T01:34:47;7.20;;;5.00;;
5616;SDS011;2830;50.656;7.568;2023-11-21T01:37:16;8.33;;;5.40;;
5616;SDS011;2830;50.656;7.568;2023-11-21T01:39:45;8.07;;;5.30;;
5616;SDS011;2830;50.656;7.568;2023-11-21T01:42:13;9.00;;;6.70;;
5616;SDS011;2830;50.656;7.568;2023-11-21T01:44:39;7.22;;;5.10;;
5616;SDS011;2830;50.656;7.568;2023-11-21T01:47:07;7.40;;;5.13;;
5616;SDS011;2830;50.656;7.568;2023-11-21T01:49:35;7.50;;;4.80;;
5616;SDS011;2830;50.656;7.568;2023-11-21T01:52:02;10.10;;;4.70;;
5616;SDS011;2830;50.656;7.568;2023-11-21T01:54:30;7.17;;;5.10;;
5616;SDS011;2830;50.656;7.568;2023-11-21T01:56:58;8.70;;;5.13;;
5616;SDS011;2830;50.656;7.568;2023-11-21T01:59:31;7.70;;;4.80;;
5616;SDS011;2830;50.656;7.568;2023-11-21T02:02:01;7.60;;;5.10;;
5616;SDS011;2830;50.656;7.568;2023-11-21T02:04:28;6.33;;;4.27;;
5616;SDS011;2830;50.656;7.568;2023-11-21T02:06:54;16.40;;;6.63;;
5616;SDS011;2830;50.656;7.568;2023-11-21T02:09:28;7.83;;;4.53;;
5616;SDS011;2830;50.656;7.568;2023-11-21T02:12:04;8.80;;;5.10;;
5616;SDS011;2830;50.656;7.568;2023-11-21T02:14:31;5.90;;;4.77;;
5616;SDS011;2830;50.656;7.568;2023-11-21T02:16:58;7.97;;;5.00;;
5616;SDS011;2830;50.656;7.568;2023-11-21T02:19:24;7.50;;;4.83;;
5616;SDS011;2830;50.656;7.568;2023-11-21T02:21:52;6.10;;;4.13;;
5616;SDS011;2830;50.656;7.568;2023-11-21T02:24:22;6.30;;;4.20;;
5616;SDS011;2830;50.656;7.568;2023-11-21T02:26:49;5.63;;;4.30;;
5616;SDS011;2830;50.656;7.568;2023-11-21T02:29:19;6.90;;;4.73;;
5616;SDS011;2830;50.656;7.568;2023-11-21T02:31:54;6.00;;;4.10;;
5616;SDS011;2830;50.656;7.568;2023-11-21T02:34:22;7.17;;;4.63;;
5616;SDS011;2830;50.656;7.568;2023-11-21T02:36:49;9.43;;;5.07;;
5616;SDS011;2830;50.656;7.568;2023-11-21T02:39:19;6.50;;;4.80;;
5616;SDS011;2830;50.656;7.568;2023-11-21T02:41:48;8.60;;;5.30;;
5616;SDS011;2830;50.656;7.568;2023-11-21T02:44:15;9.20;;;6.10;;
5616;SDS011;2830;50.656;7.568;2023-11-21T02:46:42;7.40;;;5.10;;
5616;SDS011;2830;50.656;7.568;2023-11-21T02:49:09;7.67;;;5.47;;
5616;SDS011;2830;50.656;7.568;2023-11-21T02:51:38;8.50;;;5.23;;
5616;SDS011;2830;50.656;7.568;2023-11-21T02:54:06;7.70;;;5.40;;
5616;SDS011;2830;50.656;7.568;2023-11-21T02:56:34;10.97;;;5.17;;
5616;SDS011;2830;50.656;7.568;2023-11-21T02:59:01;10.60;;;5.57;;
5616;SDS011;2830;50.656;7.568;2023-11-21T03:01:28;9.80;;;6.70;;
5616;SDS011;2830;50.656;7.568;2023-11-21T03:03:55;8.30;;;5.07;;
5616;SDS011;2830;50.656;7.568;2023-11-21T03:06:22;6.87;;;4.80;;
5616;SDS011;2830;50.656;7.568;2023-11-21T03:08:49;6.80;;;4.93;;
5616;SDS011;2830;50.656;7.568;2023-11-21T03:11:17;8.23;;;5.70;;
5616;SDS011;2830;50.656;7.568;2023-11-21T03:13:43;13.70;;;5.40;;
5616;SDS011;2830;50.656;7.568;2023-11-21T03:16:13;8.90;;;5.80;;
5616;SDS011;2830;50.656;7.568;2023-11-21T03:18:40;10.47;;;6.73;;
5616;SDS011;2830;50.656;7.568;2023-11-21T03:21:07;9.00;;;5.97;;
5616;SDS011;2830;50.656;7.568;2023-11-21T03:23:37;8.30;;;6.20;;
5616;SDS011;2830;50.656;7.568;2023-11-21T03:26:04;9.43;;;6.13;;
5616;SDS011;2830;50.656;7.568;2023-11-21T03:28:30;11.10;;;7.07;;
5616;SDS011;2830;50.656;7.568;2023-11-21T03:30:57;11.30;;;7.27;;
5616;SDS011;2830;50.656;7.568;2023-11-21T03:33:24;13.10;;;7.07;;
5616;SDS011;2830;50.656;7.568;2023-11-21T03:35:51;11.03;;;6.63;;
5616;SDS011;2830;50.656;7.568;2023-11-21T03:38:19;9.20;;;7.27;;
5616;SDS011;2830;50.656;7.568;2023-11-21T03:40:46;10.57;;;6.47;;
5616;SDS011;2830;50.656;7.568;2023-11-21T03:43:13;10.67;;;6.70;;
5616;SDS011;2830;50.656;7.568;2023-11-21T03:45:40;10.20;;;6.00;;
5616;SDS011;2830;50.656;7.568;2023-11-21T03:48:07;7.20;;;5.30;;
5616;SDS011;2830;50.656;7.568;2023-11-21T03:50:35;11.70;;;6.70;;
5616;SDS011;2830;50.656;7.568;2023-11-21T03:53:01;9.37;;;6.67;;
5616;SDS011;2830;50.656;7.568;2023-11-21T03:55:28;9.27;;;5.13;;
5616;SDS011;2830;50.656;7.568;2023-11-21T03:57:58;9.60;;;6.23;;
5616;SDS011;2830;50.656;7.568;2023-11-21T04:00:25;9.37;;;5.30;;
5616;SDS011;2830;50.656;7.568;2023-11-21T04:02:54;10.00;;;5.70;;
5616;SDS011;2830;50.656;7.568;2023-11-21T04:05:21;8.70;;;6.10;;
5616;SDS011;2830;50.656;7.568;2023-11-21T04:07:51;9.67;;;6.30;;
5616;SDS011;2830;50.656;7.568;2023-11-21T04:10:18;9.97;;;6.70;;
5616;SDS011;2830;50.656;7.568;2023-11-21T04:12:45;10.10;;;6.80;;
5616;SDS011;2830;50.656;7.568;2023-11-21T04:15:12;7.93;;;5.50;;
5616;SDS011;2830;50.656;7.568;2023-11-21T04:17:40;10.57;;;6.40;;
5616;SDS011;2830;50.656;7.568;2023-11-21T04:20:08;8.43;;;6.13;;
5616;SDS011;2830;50.656;7.568;2023-11-21T04:22:36;10.83;;;6.20;;
5616;SDS011;2830;50.656;7.568;2023-11-21T04:25:08;11.87;;;7.43;;
5616;SDS011;2830;50.656;7.568;2023-11-21T04:27:39;9.00;;;6.40;;
5616;SDS011;2830;50.656;7.568;2023-11-21T04:30:07;10.30;;;6.63;;
5616;SDS011;2830;50.656;7.568;2023-11-21T04:32:34;8.47;;;5.23;;
5616;SDS011;2830;50.656;7.568;2023-11-21T04:35:01;8.73;;;6.70;;
5616;SDS011;2830;50.656;7.568;2023-11-21T04:37:28;8.87;;;6.10;;
5616;SDS011;2830;50.656;7.568;2023-11-21T04:39:55;7.70;;;5.20;;
5616;SDS011;2830;50.656;7.568;2023-11-21T04:42:22;11.03;;;6.83;;
5616;SDS011;2830;50.656;7.568;2023-11-21T04:44:49;15.57;;;6.50;;
5616;SDS011;2830;50.656;7.568;2023-11-21T04:47:16;11.37;;;5.90;;
5616;SDS011;2830;50.656;7.568;2023-11-21T04:49:43;11.10;;;7.37;;
5616;SDS011;2830;50.656;7.568;2023-11-21T04:52:10;8.20;;;5.83;;
5616;SDS011;2830;50.656;7.568;2023-11-21T04:54:36;11.43;;;6.60;;
5616;SDS011;2830;50.656;7.568;2023-11-21T04:57:03;8.83;;;6.70;;
5616;SDS011;2830;50.656;7.568;2023-11-21T04:59:31;15.40;;;6.83;;
5616;SDS011;2830;50.656;7.568;2023-11-21T05:01:58;8.43;;;6.43;;
5616;SDS011;2830;50.656;7.568;2023-11-21T05:04:26;12.13;;;5.90;;
5616;SDS011;2830;50.656;7.568;2023-11-21T05:06:53;13.80;;;6.40;;
5616;SDS011;2830;50.656;7.568;2023-11-21T05:09:20;9.03;;;5.60;;
5616;SDS011;2830;50.656;7.568;2023-11-21T05:11:48;8.50;;;5.83;;
5616;SDS011;2830;50.656;7.568;2023-11-21T05:14:15;13.17;;;6.60;;
5616;SDS011;2830;50.656;7.568;2023-11-21T05:16:41;8.03;;;5.47;;
5616;SDS011;2830;50.656;7.568;2023-11-21T05:19:08;12.87;;;7.17;;
5616;SDS011;2830;50.656;7.568;2023-11-21T05:21:35;11.90;;;6.97;;
5616;SDS011;2830;50.656;7.568;2023-11-21T05:24:02;8.70;;;5.77;;
5616;SDS011;2830;50.656;7.568;2023-11-21T05:26:29;10.70;;;6.20;;
5616;SDS011;2830;50.656;7.568;2023-11-21T05:28:56;16.67;;;7.13;;
5616;SDS011;2830;50.656;7.568;2023-11-21T05:31:22;10.93;;;8.07;;
5616;SDS011;2830;50.656;7.568;2023-11-21T05:33:49;9.10;;;6.97;;
5616;SDS011;2830;50.656;7.568;2023-11-21T05:36:16;10.97;;;6.87;;
5616;SDS011;2830;50.656;7.568;2023-11-21T05:38:43;13.90;;;6.27;;
5616;SDS011;2830;50.656;7.568;2023-11-21T05:41:09;7.80;;;5.23;;
5616;SDS011;2830;50.656;7.568;2023-11-21T05:43:40;10.10;;;6.73;;
5616;SDS011;2830;50.656;7.568;2023-11-21T05:46:07;7.57;;;5.83;;
5616;SDS011;2830;50.656;7.568;2023-11-21T05:48:35;8.23;;;5.57;;
5616;SDS011;2830;50.656;7.568;2023-11-21T05:51:06;14.43;;;6.73;;
5616;SDS011;2830;50.656;7.568;2023-11-21T05:53:34;10.93;;;5.40;;
5616;SDS011;2830;50.656;7.568;2023-11-21T05:56:01;8.67;;;5.30;;
5616;SDS011;2830;50.656;7.568;2023-11-21T05:58:30;8.13;;;5.03;;
5616;SDS011;2830;50.656;7.568;2023-11-21T06:00:57;11.30;;;4.90;;
5616;SDS011;2830;50.656;7.568;2023-11-21T06:03:23;9.07;;;5.30;;
5616;SDS011;2830;50.656;7.568;2023-11-21T06:05:51;15.63;;;5.37;;
5616;SDS011;2830;50.656;7.568;2023-11-21T06:08:18;10.67;;;4.63;;
5616;SDS011;2830;50.656;7.568;2023-11-21T06:10:45;8.60;;;5.23;;
5616;SDS011;2830;50.656;7.568;2023-11-21T06:13:15;8.40;;;5.70;;
5616;SDS011;2830;50.656;7.568;2023-11-21T06:15:42;9.23;;;5.80;;
5616;SDS011;2830;50.656;7.568;2023-11-21T06:18:09;9.90;;;5.80;;
5616;SDS011;2830;50.656;7.568;2023-11-21T06:20:40;14.60;;;6.43;;
5616;SDS011;2830;50.656;7.568;2023-11-21T06:23:07;12.30;;;6.27;;
5616;SDS011;2830;50.656;7.568;2023-11-21T06:25:35;9.07;;;6.23;;
5616;SDS011;2830;50.656;7.568;2023-11-21T06:28:02;19.90;;;5.37;;
5616;SDS011;2830;50.656;7.568;2023-11-21T06:30:29;20.63;;;6.73;;
5616;SDS011;2830;50.656;7.568;2023-11-21T06:32:56;6.20;;;4.40;;
5616;SDS011;2830;50.656;7.568;2023-11-21T06:35:23;9.70;;;4.90;;
5616;SDS011;2830;50.656;7.568;2023-11-21T06:37:50;11.03;;;4.93;;
5616;SDS011;2830;50.656;7.568;2023-11-21T06:40:18;10.00;;;5.70;;
5616;SDS011;2830;50.656;7.568;2023-11-21T06:42:46;6.40;;;4.10;;
5616;SDS011;2830;50.656;7.568;2023-11-21T06:45:14;8.57;;;5.33;;
5616;SDS011;2830;50.656;7.568;2023-11-21T06:47:41;8.10;;;5.03;;
5616;SDS011;2830;50.656;7.568;2023-11-21T06:50:08;12.63;;;5.50;;
5616;SDS011;2830;50.656;7.568;2023-11-21T06:52:35;10.50;;;5.13;;
5616;SDS011;2830;50.656;7.568;2023-11-21T06:55:02;8.03;;;5.03;;
5616;SDS011;2830;50.656;7.568;2023-11-21T06:57:29;7.63;;;5.27;;
5616;SDS011;2830;50.656;7.568;2023-11-21T06:59:57;8.80;;;5.20;;
5616;SDS011;2830;50.656;7.568;2023-11-21T07:02:23;8.43;;;5.67;;
5616;SDS011;2830;50.656;7.568;2023-11-21T07:04:50;9.83;;;5.70;;
5616;SDS011;2830;50.656;7.568;2023-11-21T07:07:18;11.00;;;6.20;;
5616;SDS011;2830;50.656;7.568;2023-11-21T07:09:45;9.97;;;6.23;;
5616;SDS011;2830;50.656;7.568;2023-11-21T07:12:14;11.83;;;6.80;;
5616;SDS011;2830;50.656;7.568;2023-11-21T07:14:40;11.40;;;6.70;;
5616;SDS011;2830;50.656;7.568;2023-11-21T07:17:11;13.00;;;6.30;;
5616;SDS011;2830;50.656;7.568;2023-11-21T07:19:38;9.83;;;6.10;;
5616;SDS011;2830;50.656;7.568;2023-11-21T07:22:05;9.03;;;4.90;;
5616;SDS011;2830;50.656;7.568;2023-11-21T07:24:32;8.37;;;4.97;;
5616;SDS011;2830;50.656;7.568;2023-11-21T07:27:00;8.37;;;5.33;;
5616;SDS011;2830;50.656;7.568;2023-11-21T07:29:27;8.30;;;5.90;;
5616;SDS011;2830;50.656;7.568;2023-11-21T07:31:56;7.13;;;5.00;;
5616;SDS011;2830;50.656;7.568;2023-11-21T07:34:23;7.00;;;5.23;;
5616;SDS011;2830;50.656;7.568;2023-11-21T07:36:50;11.13;;;6.03;;
5616;SDS011;2830;50.656;7.568;2023-11-21T07:39:16;12.50;;;6.50;;
5616;SDS011;2830;50.656;7.568;2023-11-21T07:41:43;10.70;;;6.97;;
5616;SDS011;2830;50.656;7.568;2023-11-21T07:44:18;13.73;;;6.63;;
5616;SDS011;2830;50.656;7.568;2023-11-21T07:46:46;11.43;;;6.83;;
5616;SDS011;2830;50.656;7.568;2023-11-21T07:49:13;10.10;;;6.33;;
5616;SDS011;2830;50.656;7.568;2023-11-21T07:51:43;11.87;;;7.30;;
5616;SDS011;2830;50.656;7.568;2023-11-21T07:54:10;14.70;;;8.40;;
5616;SDS011;2830;50.656;7.568;2023-11-21T07:56:37;7.73;;;5.83;;
5616;SDS011;2830;50.656;7.568;2023-11-21T07:59:04;13.10;;;7.87;;
5616;SDS011;2830;50.656;7.568;2023-11-21T08:01:31;16.20;;;10.27;;
5616;SDS011;2830;50.656;7.568;2023-11-21T08:03:58;15.27;;;9.50;;
5616;SDS011;2830;50.656;7.568;2023-11-21T08:06:30;15.50;;;8.10;;
5616;SDS011;2830;50.656;7.568;2023-11-21T08:08:57;20.67;;;10.57;;
5616;SDS011;2830;50.656;7.568;2023-11-21T08:11:23;19.87;;;9.03;;
5616;SDS011;2830;50.656;7.568;2023-11-21T08:13:50;11.83;;;7.50;;
5616;SDS011;2830;50.656;7.568;2023-11-21T08:16:17;10.40;;;7.00;;
5616;SDS011;2830;50.656;7.568;2023-11-21T08:18:44;15.30;;;8.97;;
5616;SDS011;2830;50.656;7.568;2023-11-21T08:21:12;13.60;;;7.90;;
5616;SDS011;2830;50.656;7.568;2023-11-21T08:23:39;14.33;;;8.43;;
5616;SDS011;2830;50.656;7.568;2023-11-21T08:26:06;15.00;;;7.93;;
5616;SDS011;2830;50.656;7.568;2023-11-21T08:28:33;11.37;;;7.97;;
5616;SDS011;2830;50.656;7.568;2023-11-21T08:31:00;18.23;;;10.77;;
5616;SDS011;2830;50.656;7.568;2023-11-21T08:33:27;17.00;;;10.63;;
5616;SDS011;2830;50.656;7.568;2023-11-21T08:35:54;15.90;;;10.57;;
5616;SDS011;2830;50.656;7.568;2023-11-21T08:38:21;20.43;;;10.73;;
5616;SDS011;2830;50.656;7.568;2023-11-21T08:40:48;25.90;;;11.80;;
5616;SDS011;2830;50.656;7.568;2023-11-21T08:43:15;19.50;;;12.77;;
5616;SDS011;2830;50.656;7.568;2023-11-21T08:45:43;20.63;;;12.70;;
5616;SDS011;2830;50.656;7.568;2023-11-21T08:48:10;18.83;;;12.10;;
5616;SDS011;2830;50.656;7.568;2023-11-21T08:50:38;24.27;;;15.07;;
5616;SDS011;2830;50.656;7.568;2023-11-21T08:53:05;33.73;;;14.43;;
5616;SDS011;2830;50.656;7.568;2023-11-21T08:55:32;29.10;;;14.63;;
5616;SDS011;2830;50.656;7.568;2023-11-21T08:58:03;23.30;;;14.07;;
5616;SDS011;2830;50.656;7.568;2023-11-21T09:00:34;26.03;;;13.70;;
5616;SDS011;2830;50.656;7.568;2023-11-21T09:03:01;24.07;;;13.50;;
5616;SDS011;2830;50.656;7.568;2023-11-21T09:05:29;25.47;;;15.30;;
5616;SDS011;2830;50.656;7.568;2023-11-21T09:07:56;29.23;;;15.17;;
5616;SDS011;2830;50.656;7.568;2023-11-21T09:10:23;25.67;;;14.33;;
5616;SDS011;2830;50.656;7.568;2023-11-21T09:12:51;29.50;;;15.60;;
5616;SDS011;2830;50.656;7.568;2023-11-21T09:15:18;23.90;;;15.00;;
5616;SDS011;2830;50.656;7.568;2023-11-21T09:17:47;21.50;;;12.80;;
5616;SDS011;2830;50.656;7.568;2023-11-21T09:20:14;25.43;;;13.57;;
5616;SDS011;2830;50.656;7.568;2023-11-21T09:22:42;22.33;;;12.30;;
5616;SDS011;2830;50.656;7.568;2023-11-21T09:25:11;24.30;;;12.30;;
5616;SDS011;2830;50.656;7.568;2023-11-21T09:27:39;19.90;;;12.70;;
5616;SDS011;2830;50.656;7.568;2023-11-21T09:30:06;25.20;;;13.43;;
5616;SDS011;2830;50.656;7.568;2023-11-21T09:32:40;25.03;;;12.70;;
5616;SDS011;2830;50.656;7.568;2023-11-21T09:35:07;24.90;;;13.40;;
5616;SDS011;2830;50.656;7.568;2023-11-21T09:37:34;28.33;;;14.80;;
5616;SDS011;2830;50.656;7.568;2023-11-21T09:40:04;23.57;;;13.30;;
5616;SDS011;2830;50.656;7.568;2023-11-21T09:42:39;26.90;;;16.20;;
5616;SDS011;2830;50.656;7.568;2023-11-21T09:47:53;30.40;;;14.73;;
5616;SDS011;2830;50.656;7.568;2023-11-21T09:50:22;26.87;;;14.87;;
5616;SDS011;2830;50.656;7.568;2023-11-21T09:55:44;21.97;;;13.37;;
5616;SDS011;2830;50.656;7.568;2023-11-21T09:58:13;33.23;;;15.57;;
5616;SDS011;2830;50.656;7.568;2023-11-21T10:00:42;28.10;;;15.07;;
5616;SDS011;2830;50.656;7.568;2023-11-21T10:03:12;26.77;;;13.93;;
5616;SDS011;2830;50.656;7.568;2023-11-21T10:05:44;29.47;;;14.73;;
5616;SDS011;2830;50.656;7.568;2023-11-21T10:08:13;25.70;;;13.77;;
5616;SDS011;2830;50.656;7.568;2023-11-21T10:10:43;29.20;;;13.30;;
5616;SDS011;2830;50.656;7.568;2023-11-21T10:13:12;26.60;;;14.30;;
5616;SDS011;2830;50.656;7.568;2023-11-21T10:15:43;27.87;;;14.80;;
5616;SDS011;2830;50.656;7.568;2023-11-21T10:18:15;29.30;;;15.83;;
5616;SDS011;2830;50.656;7.568;2023-11-21T10:20:42;33.10;;;15.53;;
5616;SDS011;2830;50.656;7.568;2023-11-21T10:23:12;26.90;;;15.13;;
5616;SDS011;2830;50.656;7.568;2023-11-21T10:25:42;25.40;;;13.50;;
5616;SDS011;2830;50.656;7.568;2023-11-21T10:28:09;27.03;;;14.50;;
5616;SDS011;2830;50.656;7.568;2023-11-21T10:30:38;25.67;;;12.93;;
5616;SDS011;2830;50.656;7.568;2023-11-21T10:33:07;28.13;;;14.07;;
5616;SDS011;2830;50.656;7.568;2023-11-21T10:35:47;24.83;;;14.37;;
5616;SDS011;2830;50.656;7.568;2023-11-21T10:38:19;24.47;;;14.90;;
5616;SDS011;2830;50.656;7.568;2023-11-21T10:40:50;31.13;;;15.23;;
5616;SDS011;2830;50.656;7.568;2023-11-21T10:43:18;37.30;;;16.07;;
5616;SDS011;2830;50.656;7.568;2023-11-21T10:45:45;28.60;;;13.50;;
5616;SDS011;2830;50.656;7.568;2023-11-21T10:48:13;27.47;;;14.90;;
5616;SDS011;2830;50.656;7.568;2023-11-21T10:50:45;30.00;;;15.50;;
5616;SDS011;2830;50.656;7.568;2023-11-21T10:53:13;23.47;;;15.07;;
5616;SDS011;2830;50.656;7.568;2023-11-21T10:55:40;26.00;;;14.13;;
5616;SDS011;2830;50.656;7.568;2023-11-21T10:58:08;30.53;;;15.10;;
5616;SDS011;2830;50.656;7.568;2023-11-21T11:00:39;32.00;;;15.87;;
5616;SDS011;2830;50.656;7.568;2023-11-21T11:03:07;24.37;;;14.60;;
5616;SDS011;2830;50.656;7.568;2023-11-21T11:05:40;28.30;;;14.83;;
5616;SDS011;2830;50.656;7.568;2023-11-21T11:08:12;23.43;;;13.53;;
5616;SDS011;2830;50.656;7.568;2023-11-21T11:10:39;33.33;;;14.43;;
5616;SDS011;2830;50.656;7.568;2023-11-21T11:13:06;27.67;;;13.30;;
5616;SDS011;2830;50.656;7.568;2023-11-21T11:15:35;26.40;;;13.83;;
5616;SDS011;2830;50.656;7.568;2023-11-21T11:18:02;28.23;;;16.23;;
5616;SDS011;2830;50.656;7.568;2023-11-21T11:20:34;25.30;;;15.37;;
5616;SDS011;2830;50.656;7.568;2023-11-21T11:31:37;27.57;;;12.80;;
5616;SDS011;2830;50.656;7.568;2023-11-21T11:34:32;24.03;;;12.67;;
5616;SDS011;2830;50.656;7.568;2023-11-21T11:37:09;26.27;;;13.07;;
5616;SDS011;2830;50.656;7.568;2023-11-21T11:39:37;21.43;;;12.00;;
5616;SDS011;2830;50.656;7.568;2023-11-21T11:42:12;18.17;;;12.17;;
5616;SDS011;2830;50.656;7.568;2023-11-21T11:47:20;23.30;;;13.17;;
5616;SDS011;2830;50.656;7.568;2023-11-21T11:50:08;19.40;;;11.80;;
5616;SDS011;2830;50.656;7.568;2023-11-21T11:52:41;20.00;;;12.03;;
5616;SDS011;2830;50.656;7.568;2023-11-21T11:55:13;19.37;;;11.57;;
5616;SDS011;2830;50.656;7.568;2023-11-21T11:57:47;21.70;;;10.40;;
5616;SDS011;2830;50.656;7.568;2023-11-21T12:00:17;22.63;;;11.60;;
5616;SDS011;2830;50.656;7.568;2023-11-21T12:02:52;21.37;;;12.97;;
5616;SDS011;2830;50.656;7.568;2023-11-21T12:05:28;18.70;;;12.27;;
5616;SDS011;2830;50.656;7.568;2023-11-21T12:08:00;22.20;;;12.27;;
5616;SDS011;2830;50.656;7.568;2023-11-21T12:10:33;21.40;;;12.70;;
5616;SDS011;2830;50.656;7.568;2023-11-21T12:13:02;22.00;;;10.73;;
5616;SDS011;2830;50.656;7.568;2023-11-21T12:15:34;22.80;;;11.83;;
5616;SDS011;2830;50.656;7.568;2023-11-21T12:18:03;15.87;;;10.60;;
5616;SDS011;2830;50.656;7.568;2023-11-21T12:20:30;20.40;;;10.33;;
5616;SDS011;2830;50.656;7.568;2023-11-21T12:22:58;26.60;;;12.30;;
5616;SDS011;2830;50.656;7.568;2023-11-21T12:25:27;17.93;;;10.53;;
5616;SDS011;2830;50.656;7.568;2023-11-21T12:27:58;19.70;;;10.30;;
5616;SDS011;2830;50.656;7.568;2023-11-21T12:30:27;17.83;;;9.90;;
5616;SDS011;2830;50.656;7.568;2023-11-21T12:33:02;14.37;;;9.00;;
5616;SDS011;2830;50.656;7.568;2023-11-21T12:35:33;19.00;;;11.33;;
5616;SDS011;2830;50.656;7.568;2023-11-21T12:38:02;22.30;;;12.03;;
5616;SDS011;2830;50.656;7.568;2023-11-21T12:40:30;25.17;;;13.53;;
5616;SDS011;2830;50.656;7.568;2023-11-21T12:42:59;20.83;;;11.27;;
5616;SDS011;2830;50.656;7.568;2023-11-21T12:45:28;25.03;;;12.80;;
5616;SDS011;2830;50.656;7.568;2023-11-21T12:50:27;26.80;;;12.23;;
5616;SDS011;2830;50.656;7.568;2023-11-21T12:52:59;22.90;;;13.70;;
5616;SDS011;2830;50.656;7.568;2023-11-21T12:55:32;19.53;;;12.87;;
5616;SDS011;2830;50.656;7.568;2023-11-21T12:58:05;24.63;;;14.00;;
5616;SDS011;2830;50.656;7.568;2023-11-21T13:00:55;27.53;;;12.17;;
5616;SDS011;2830;50.656;7.568;2023-11-21T13:03:25;22.37;;;12.23;;
5616;SDS011;2830;50.656;7.568;2023-11-21T13:05:53;25.10;;;12.90;;
5616;SDS011;2830;50.656;7.568;2023-11-21T13:08:21;34.47;;;14.23;;
5616;SDS011;2830;50.656;7.568;2023-11-21T13:10:54;25.20;;;12.73;;
5616;SDS011;2830;50.656;7.568;2023-11-21T13:13:24;24.63;;;12.80;;
5616;SDS011;2830;50.656;7.568;2023-11-21T13:15:52;27.30;;;14.00;;
5616;SDS011;2830;50.656;7.568;2023-11-21T13:18:24;26.00;;;13.43;;
5616;SDS011;2830;50.656;7.568;2023-11-21T13:20:53;22.50;;;12.23;;
5616;SDS011;2830;50.656;7.568;2023-11-21T13:23:24;20.33;;;11.53;;
5616;SDS011;2830;50.656;7.568;2023-11-21T13:25:52;20.27;;;10.77;;
5616;SDS011;2830;50.656;7.568;2023-11-21T13:28:30;25.07;;;12.40;;
5616;SDS011;2830;50.656;7.568;2023-11-21T13:31:01;22.03;;;11.87;;
5616;SDS011;2830;50.656;7.568;2023-11-21T13:33:36;20.00;;;11.63;;
5616;SDS011;2830;50.656;7.568;2023-11-21T13:36:05;22.70;;;11.53;;
5616;SDS011;2830;50.656;7.568;2023-11-21T13:38:35;18.10;;;10.70;;
5616;SDS011;2830;50.656;7.568;2023-11-21T13:41:03;26.03;;;13.07;;
5616;SDS011;2830;50.656;7.568;2023-11-21T13:43:33;22.43;;;13.27;;
5616;SDS011;2830;50.656;7.568;2023-11-21T13:46:01;21.93;;;12.07;;
5616;SDS011;2830;50.656;7.568;2023-11-21T13:48:34;18.40;;;11.63;;
5616;SDS011;2830;50.656;7.568;2023-11-21T13:51:08;20.40;;;12.53;;
5616;SDS011;2830;50.656;7.568;2023-11-21T13:53:47;28.60;;;12.90;;
5616;SDS011;2830;50.656;7.568;2023-11-21T13:56:16;23.23;;;11.80;;
5616;SDS011;2830;50.656;7.568;2023-11-21T13:58:48;25.30;;;14.00;;
5616;SDS011;2830;50.656;7.568;2023-11-21T14:01:23;25.00;;;13.03;;
5616;SDS011;2830;50.656;7.568;2023-11-21T14:03:57;22.60;;;11.93;;
5616;SDS011;2830;50.656;7.568;2023-11-21T14:06:34;22.50;;;11.00;;
5616;SDS011;2830;50.656;7.568;2023-11-21T14:09:17;21.03;;;12.07;;
5616;SDS011;2830;50.656;7.568;2023-11-21T14:11:53;25.17;;;13.27;;
5616;SDS011;2830;50.656;7.568;2023-11-21T14:14:24;27.77;;;13.07;;
5616;SDS011;2830;50.656;7.568;2023-11-21T14:16:54;24.90;;;13.03;;
5616;SDS011;2830;50.656;7.568;2023-11-21T14:19:22;34.07;;;14.83;;
5616;SDS011;2830;50.656;7.568;2023-11-21T14:21:53;30.47;;;15.43;;
5616;SDS011;2830;50.656;7.568;2023-11-21T14:24:20;31.53;;;14.80;;
5616;SDS011;2830;50.656;7.568;2023-11-21T14:26:49;34.10;;;17.53;;
5616;SDS011;2830;50.656;7.568;2023-11-21T14:29:17;30.03;;;14.77;;
5616;SDS011;2830;50.656;7.568;2023-11-21T14:31:49;28.70;;;14.33;;
5616;SDS011;2830;50.656;7.568;2023-11-21T14:34:17;30.70;;;15.37;;
5616;SDS011;2830;50.656;7.568;2023-11-21T14:36:48;28.87;;;16.50;;
5616;SDS011;2830;50.656;7.568;2023-11-21T14:39:15;30.17;;;14.17;;
5616;SDS011;2830;50.656;7.568;2023-11-21T14:41:50;35.10;;;15.63;;
5616;SDS011;2830;50.656;7.568;2023-11-21T14:44:18;34.80;;;16.30;;
5616;SDS011;2830;50.656;7.568;2023-11-21T14:46:46;31.77;;;15.33;;
5616;SDS011;2830;50.656;7.568;2023-11-21T14:49:16;33.70;;;13.80;;
5616;SDS011;2830;50.656;7.568;2023-11-21T14:51:47;30.60;;;14.83;;
5616;SDS011;2830;50.656;7.568;2023-11-21T14:54:30;37.70;;;15.87;;
5616;SDS011;2830;50.656;7.568;2023-11-21T14:57:12;29.70;;;16.60;;
5616;SDS011;2830;50.656;7.568;2023-11-21T14:59:44;40.67;;;15.20;;
5616;SDS011;2830;50.656;7.568;2023-11-21T15:02:19;33.40;;;15.47;;
5616;SDS011;2830;50.656;7.568;2023-11-21T15:05:10;31.83;;;16.63;;
5616;SDS011;2830;50.656;7.568;2023-11-21T15:07:43;30.53;;;16.10;;
5616;SDS011;2830;50.656;7.568;2023-11-21T15:10:11;30.00;;;16.47;;
5616;SDS011;2830;50.656;7.568;2023-11-21T15:12:41;32.57;;;16.07;;
5616;SDS011;2830;50.656;7.568;2023-11-21T15:15:09;31.37;;;16.70;;
5616;SDS011;2830;50.656;7.568;2023-11-21T15:17:37;33.40;;;16.10;;
5616;SDS011;2830;50.656;7.568;2023-11-21T15:20:06;37.87;;;17.43;;
5616;SDS011;2830;50.656;7.568;2023-11-21T15:22:35;31.20;;;15.50;;
5616;SDS011;2830;50.656;7.568;2023-11-21T15:25:02;39.53;;;18.20;;
5616;SDS011;2830;50.656;7.568;2023-11-21T15:27:35;39.07;;;17.13;;
5616;SDS011;2830;50.656;7.568;2023-11-21T15:30:05;33.00;;;17.00;;